Flight Track Log - Related Links

Times and Time Zones

All times are in EDT time to prevent confusion due to time zone crossing. See the CES5695 flight status page for this flight to view local times or setup timezone preferences in your user account.

Time Position Orientation Groundspeed Altitude Reporting Facility
EDT Latitude Longitude Course Direction KTS MPH feet Rate Location/Type
Thu 01:17:22 AM 40.1010 115.7700 214° Southwest 20,200  Level FlightAware
Thu 01:18:02 AM 40.0350 115.7080 216° Southwest 391 450 20,700 1,371 Climbing FlightAware
Thu 01:20:00 AM 39.9321 115.6381 208° Southwest  Level Estimated
Thu 01:20:17 AM 39.8260 115.5130 208° Southwest 23,900  Level FlightAware
Thu 01:20:52 AM 39.7760 115.4670 215° Southwest 376 433 25,000 1,971 Climbing FlightAware
Thu 01:21:27 AM 39.7300 115.4130 222° Southwest 341 392 26,200 1,775 Climbing FlightAware
Thu 01:22:03 AM 39.6860 115.3510 227° Southwest 409 471 27,100 1,200 Climbing FlightAware
Thu 01:22:37 AM 39.6460 115.2940 228° Southwest 388 447 27,600 556 Climbing FlightAware
Thu 01:22:57 AM 39.6150 115.2500 228° Southwest 303 349 27,600  Level FlightAware
Thu 01:23:33 AM 39.5700 115.1880 227° Southwest 446 513 27,600  Level FlightAware
Thu 01:24:12 AM 39.5170 115.1140 227° Southwest 608 700 27,600  Level FlightAware
Thu 01:24:52 AM 39.4650 115.0420 227° Southwest 435 501 27,600  Level FlightAware
Thu 01:25:27 AM 39.4190 114.9760 228° Southwest 525 604 27,600  Level FlightAware
Thu 01:25:57 AM 39.3830 114.9270 226° Southwest 330 380 27,600  Level FlightAware
Thu 01:26:42 AM 39.3210 114.8410 227° Southwest 381 438 27,600  Level FlightAware
Thu 01:27:17 AM 39.2730 114.7830 223° Southwest 540 621 27,600  Level FlightAware
Thu 01:29:00 AM 39.1802 114.7307 204° Southwest  Level Estimated
Thu 01:30:00 AM 39.1261 114.7003 204° Southwest  Level Estimated
Thu 01:31:00 AM 39.0721 114.6699 204° Southwest  Level Estimated
Thu 01:32:00 AM 39.0180 114.6396 204° Southwest  Level Estimated
Thu 01:33:00 AM 38.9639 114.6093 204° Southwest  Level Estimated
Thu 01:34:00 AM 38.9098 114.5791 203° Southwest  Level Estimated
Thu 01:35:00 AM 38.8557 114.5490 203° Southwest  Level Estimated
Thu 01:36:00 AM 38.8016 114.5188 203° Southwest  Level Estimated
Thu 01:37:00 AM 38.7475 114.4887 203° Southwest  Level Estimated
Thu 01:38:00 AM 38.6934 114.4587 203° Southwest  Level Estimated
Thu 01:39:00 AM 38.6393 114.4287 203° Southwest  Level Estimated
Thu 01:40:00 AM 38.5851 114.3988 203° Southwest  Level Estimated
Thu 01:41:00 AM 38.5310 114.3689 203° Southwest  Level Estimated
Thu 01:42:00 AM 38.4768 114.3390 203° Southwest  Level Estimated
Thu 01:43:00 AM 38.4227 114.3092 203° Southwest  Level Estimated
Thu 01:44:00 AM 38.3685 114.2794 203° Southwest  Level Estimated
Thu 01:45:00 AM 38.3143 114.2497 203° Southwest  Level Estimated
Thu 01:46:00 AM 38.2601 114.2200 203° Southwest  Level Estimated
Thu 01:47:00 AM 38.2059 114.1904 203° Southwest  Level Estimated
Thu 01:48:00 AM 38.1517 114.1608 203° Southwest  Level Estimated
Thu 01:49:00 AM 38.0975 114.1312 203° Southwest  Level Estimated
Thu 01:50:00 AM 38.0433 114.1018 203° Southwest  Level Estimated
Thu 01:51:00 AM 37.9891 114.0723 203° Southwest  Level Estimated
Thu 01:52:00 AM 37.9349 114.0429 203° Southwest  Level Estimated
Thu 01:53:00 AM 37.8806 114.0135 203° Southwest  Level Estimated
Thu 01:54:00 AM 37.8264 113.9842 203° Southwest  Level Estimated
Thu 01:55:00 AM 37.7721 113.9549 203° Southwest  Level Estimated
Thu 01:56:00 AM 37.7179 113.9256 203° Southwest  Level Estimated
Thu 01:57:00 AM 37.6636 113.8964 203° Southwest  Level Estimated
Thu 01:58:00 AM 37.6094 113.8673 203° Southwest  Level Estimated
Thu 01:59:00 AM 37.5551 113.8382 203° Southwest  Level Estimated
Thu 02:00:00 AM 37.5008 113.8091 203° Southwest  Level Estimated
Thu 02:01:00 AM 37.4465 113.7801 203° Southwest  Level Estimated
Thu 02:02:00 AM 37.3922 113.7511 203° Southwest  Level Estimated
Thu 02:03:00 AM 37.3379 113.7221 203° Southwest  Level Estimated
Thu 02:04:00 AM 37.2836 113.6932 203° Southwest  Level Estimated
Thu 02:05:00 AM 37.2293 113.6644 203° Southwest  Level Estimated
Thu 02:06:00 AM 37.1749 113.6356 203° Southwest  Level Estimated
Thu 02:07:00 AM 37.1206 113.6068 203° Southwest  Level Estimated
Thu 02:08:00 AM 37.0663 113.5780 203° Southwest  Level Estimated
Thu 02:09:00 AM 36.9879 113.5367 203° Southwest  Level Estimated
Thu 02:10:00 AM 36.9096 113.4954 203° Southwest  Level Estimated
Thu 02:11:00 AM 36.8313 113.4543 203° Southwest  Level Estimated
Thu 02:12:00 AM 36.7529 113.4132 203° Southwest  Level Estimated
Thu 02:13:00 AM 36.6745 113.3722 203° Southwest  Level Estimated
Thu 02:14:00 AM 36.5961 113.3313 203° Southwest  Level Estimated
Thu 02:15:00 AM 36.5177 113.2904 203° Southwest  Level Estimated
Thu 02:16:00 AM 36.4393 113.2497 203° Southwest  Level Estimated
Thu 02:17:00 AM 36.3609 113.2090 203° Southwest  Level Estimated
Thu 02:18:00 AM 36.2825 113.1684 203° Southwest  Level Estimated
Thu 02:19:00 AM 36.2040 113.1279 203° Southwest  Level Estimated
Thu 02:20:00 AM 36.1255 113.0875 203° Southwest  Level Estimated
Thu 02:21:00 AM 36.0470 113.0472 203° Southwest  Level Estimated
Thu 02:22:00 AM 35.9685 113.0069 203° Southwest  Level Estimated
Thu 02:23:00 AM 35.8900 112.9667 203° Southwest  Level Estimated
Thu 02:24:00 AM 35.8115 112.9266 202° Southwest  Level Estimated
Thu 02:25:00 AM 35.7329 112.8866 202° Southwest  Level Estimated
Thu 02:26:00 AM 35.6544 112.8466 202° Southwest  Level Estimated
Thu 02:27:00 AM 35.5758 112.8068 202° Southwest  Level Estimated
Thu 02:28:00 AM 35.4972 112.7670 202° Southwest  Level Estimated
Thu 02:29:00 AM 35.4187 112.7273 202° Southwest  Level Estimated
Thu 02:30:00 AM 35.3401 112.6876 202° Southwest  Level Estimated
Thu 02:31:00 AM 35.2614 112.6481 202° Southwest  Level Estimated
Thu 02:32:00 AM 35.1828 112.6086 202° Southwest  Level Estimated
Thu 02:33:00 AM 35.1042 112.5692 202° Southwest  Level Estimated
Thu 02:34:00 AM 35.0255 112.5299 202° Southwest  Level Estimated
Thu 02:35:00 AM 34.9468 112.4906 202° Southwest  Level Estimated
Thu 02:36:00 AM 34.8682 112.4514 202° Southwest  Level Estimated
Thu 02:37:00 AM 34.7895 112.4123 202° Southwest  Level Estimated

Login

Don't have an account? Register now (free) for customized features, flight alerts, and more!